Impacts TAF Board
For situational awareness. Not to be used for flight planning purposes.
IDs:

KHBG - Hattiesburg/Chain Mu, MS, US

Issued at 2320 UTC 23 Apr 2019
Updated at 0305 UTC 24 Apr 2019
Potential Impact None Slight Moderate High
Time<<25/04Z 25/05Z 25/06Z 25/07Z 25/08Z 25/09Z 25/10Z 25/11Z 25/12Z 25/13Z 25/14Z 25/15Z 25/16Z
Type
VIS
CIG
Cover
FltCat
WX
WDir
WSpd
WGst
Raw TAF
KHBG 232320Z 2400/2424 18003KT P6SM BKN200
  FM241100 00000KT 6SM BR SCT015 BKN200
  FM241400 18009KT P6SM SCT050 BKN150


METAR Board
Radar Display
Forecast Discussion
For situational awareness. Not to be used for flight planning purposes.